Time;durP1;ratioP1;P1;durP2;ratioP2;P2;SDS_P1;SDS_P2;PMS_P1;PMS_P2;Temp;Humidity;BMP_temperature;BMP_pressure;BME280_temperature;BME280_humidity;BME280_pressure;Samples;Min_cycle;Max_cycle;Signal;HPM_P1;HPM_P2
2022/05/27 00:01:49;;;;;;;4.82;2.42;;;;;;;;;;4998759;28;20038;-72
2022/05/27 00:04:16;;;;;;;7.18;2.53;;;;;;;;;;5014411;28;20049;-71
2022/05/27 00:06:42;;;;;;;7.85;2.70;;;;;;;;;;5003805;28;20490;-72
2022/05/27 00:09:08;;;;;;;3.33;2.20;;;;;;;;;;5033522;28;20052;-72
2022/05/27 00:11:34;;;;;;;4.25;2.65;;;;;;;;;;5027096;28;20114;-72
2022/05/27 00:14:01;;;;;;;4.15;2.15;;;;;;;;;;5020171;28;20022;-76
2022/05/27 00:16:28;;;;;;;4.72;2.25;;;;;;;;;;5007165;28;20034;-77
2022/05/27 00:18:54;;;;;;;4.63;2.35;;;;;;;;;;5033467;28;20029;-75
2022/05/27 00:21:20;;;;;;;2.40;1.92;;;;;;;;;;5035825;28;20343;-71
2022/05/27 00:23:46;;;;;;;5.82;2.30;;;;;;;;;;5027721;28;20025;-74
2022/05/27 00:26:12;;;;;;;4.93;2.40;;;;;;;;;;5011703;28;20169;-74
2022/05/27 00:28:41;;;;;;;3.65;2.10;;;;;;;;;;5014340;28;20120;-73
2022/05/27 00:31:07;;;;;;;2.60;2.20;;;;;;;;;;5014176;28;20483;-74
2022/05/27 00:33:37;;;;;;;2.70;2.10;;;;;;;;;;5013556;28;20022;-71
2022/05/27 00:36:06;;;;;;;2.50;2.08;;;;;;;;;;5012670;28;20080;-73
2022/05/27 00:38:32;;;;;;;2.47;1.98;;;;;;;;;;5015236;28;20036;-72
2022/05/27 00:40:58;;;;;;;3.20;2.10;;;;;;;;;;5027590;28;20021;-73
2022/05/27 00:43:24;;;;;;;4.38;2.40;;;;;;;;;;5033029;28;20034;-72
2022/05/27 00:46:03;;;;;;;8.73;2.40;;;;;;;;;;5024761;28;20376;-71
2022/05/27 00:48:29;;;;;;;3.20;2.10;;;;;;;;;;5015937;28;20117;-71
2022/05/27 00:50:57;;;;;;;3.10;2.00;;;;;;;;;;5012892;28;20484;-74
2022/05/27 00:53:28;;;;;;;2.47;2.15;;;;;;;;;;5015279;28;20116;-71
2022/05/27 00:56:00;;;;;;;3.65;2.10;;;;;;;;;;5025543;28;20442;-78
2022/05/27 00:58:29;;;;;;;2.35;2.08;;;;;;;;;;5010718;28;20053;-70
2022/05/27 01:00:55;;;;;;;3.30;2.42;;;;;;;;;;5014552;28;20033;-72
2022/05/27 01:03:24;;;;;;;2.92;2.10;;;;;;;;;;5017480;28;20038;-71
2022/05/27 01:05:52;;;;;;;2.80;2.00;;;;;;;;;;5001424;28;20938;-72
2022/05/27 01:08:20;;;;;;;5.47;2.03;;;;;;;;;;5016975;28;20033;-78
2022/05/27 01:10:46;;;;;;;4.55;2.33;;;;;;;;;;5022053;28;20057;-72
2022/05/27 01:13:26;;;;;;;3.47;2.53;;;;;;;;;;5023404;28;20077;-73
2022/05/27 01:15:52;;;;;;;8.43;2.97;;;;;;;;;;5020477;28;20034;-72
2022/05/27 01:18:21;;;;;;;5.15;2.30;;;;;;;;;;5016505;28;20026;-72
2022/05/27 01:20:54;;;;;;;7.75;2.40;;;;;;;;;;5014702;28;20372;-78
2022/05/27 01:23:39;;;;;;;4.97;2.10;;;;;;;;;;5019183;28;20026;-71
2022/05/27 01:26:08;;;;;;;5.10;2.38;;;;;;;;;;5016321;28;20045;-72
2022/05/27 01:28:37;;;;;;;5.50;2.50;;;;;;;;;;5015441;28;20037;-71
2022/05/27 01:31:03;;;;;;;6.75;2.35;;;;;;;;;;5014202;28;20026;-75
2022/05/27 01:33:33;;;;;;;3.60;2.40;;;;;;;;;;5019105;28;20391;-73
2022/05/27 01:36:02;;;;;;;4.50;2.40;;;;;;;;;;5023033;28;20029;-72
2022/05/27 01:38:43;;;;;;;5.80;2.45;;;;;;;;;;5017960;28;20026;-73
2022/05/27 01:41:13;;;;;;;5.40;2.45;;;;;;;;;;5015155;28;20018;-72
2022/05/27 01:43:41;;;;;;;4.18;2.30;;;;;;;;;;5036231;28;20064;-73
2022/05/27 01:46:33;;;;;;;3.63;2.25;;;;;;;;;;5021057;28;20105;-73
2022/05/27 01:49:29;;;;;;;3.60;2.30;;;;;;;;;;5013407;28;20049;-77
2022/05/27 01:51:58;;;;;;;5.88;2.30;;;;;;;;;;4960001;28;20043;-74
2022/05/27 01:54:42;;;;;;;3.58;2.20;;;;;;;;;;4974945;28;20093;-71
2022/05/27 01:57:14;;;;;;;2.50;2.20;;;;;;;;;;4954796;29;20046;-73
2022/05/27 01:59:52;;;;;;;5.22;2.40;;;;;;;;;;4949913;29;20035;-74
2022/05/27 02:02:21;;;;;;;4.43;2.25;;;;;;;;;;4954567;29;20054;-73
2022/05/27 02:05:03;;;;;;;3.05;2.30;;;;;;;;;;4966288;28;20030;-74
2022/05/27 02:07:33;;;;;;;3.10;2.10;;;;;;;;;;4955396;29;20505;-72
2022/05/27 02:10:04;;;;;;;3.22;2.00;;;;;;;;;;4954636;28;20041;-73
2022/05/27 02:12:32;;;;;;;2.80;2.25;;;;;;;;;;4966617;28;20069;-73
2022/05/27 02:15:10;;;;;;;2.42;2.10;;;;;;;;;;4955700;29;20425;-73
2022/05/27 02:17:40;;;;;;;3.70;2.17;;;;;;;;;;4955264;28;20059;-76
2022/05/27 02:20:08;;;;;;;5.78;2.13;;;;;;;;;;4952981;29;20507;-74
2022/05/27 02:22:46;;;;;;;4.80;2.53;;;;;;;;;;4953152;29;20039;-72
2022/05/27 02:25:14;;;;;;;3.50;2.40;;;;;;;;;;4955687;28;20039;-73
2022/05/27 02:27:46;;;;;;;3.88;2.40;;;;;;;;;;4971296;28;20049;-73
2022/05/27 02:30:18;;;;;;;3.70;2.50;;;;;;;;;;5016295;28;20030;-72
2022/05/27 02:35:07;;;;;;;3.10;2.22;;;;;;;;;;5009068;28;20120;-74
2022/05/27 02:35:41;;;;;;;6.18;2.55;;;;;;;;;;5017967;28;20454;-72
2022/05/27 02:38:07;;;;;;;4.10;2.38;;;;;;;;;;5021450;28;20022;-73
2022/05/27 02:40:35;;;;;;;3.00;2.53;;;;;;;;;;5023925;28;20120;-76
2022/05/27 02:43:09;;;;;;;4.97;2.40;;;;;;;;;;5015312;28;20033;-72
2022/05/27 02:45:36;;;;;;;2.83;2.42;;;;;;;;;;5014496;28;20036;-71
2022/05/27 02:48:04;;;;;;;3.45;2.65;;;;;;;;;;5015248;28;20112;-73
2022/05/27 02:50:47;;;;;;;6.00;2.78;;;;;;;;;;5035126;28;20101;-73
2022/05/27 02:53:19;;;;;;;5.10;2.60;;;;;;;;;;5019271;28;20022;-71
2022/05/27 02:56:01;;;;;;;4.85;2.88;;;;;;;;;;5015899;28;20113;-72
2022/05/27 02:58:29;;;;;;;4.30;2.58;;;;;;;;;;5022723;28;20079;-72
2022/05/27 03:00:57;;;;;;;4.10;2.83;;;;;;;;;;5016236;28;20030;-73
2022/05/27 03:03:23;;;;;;;3.33;2.60;;;;;;;;;;5014498;28;20018;-72
2022/05/27 03:05:52;;;;;;;4.32;2.65;;;;;;;;;;5019353;28;20080;-81
2022/05/27 03:08:20;;;;;;;4.43;2.58;;;;;;;;;;5034742;28;20060;-72
2022/05/27 03:10:46;;;;;;;3.22;2.40;;;;;;;;;;5027883;28;20033;-73
2022/05/27 03:13:25;;;;;;;4.43;2.85;;;;;;;;;;5026703;28;20615;-73
2022/05/27 03:15:54;;;;;;;4.50;2.80;;;;;;;;;;5013325;28;20021;-72
2022/05/27 03:18:30;;;;;;;5.75;2.78;;;;;;;;;;5031683;28;20025;-73
2022/05/27 03:21:32;;;;;;;3.83;2.40;;;;;;;;;;5026283;28;20030;-72
2022/05/27 03:24:16;;;;;;;6.03;2.53;;;;;;;;;;4966566;28;20524;-73
2022/05/27 03:27:01;;;;;;;6.78;3.00;;;;;;;;;;4954384;29;20043;-73
2022/05/27 03:29:27;;;;;;;4.28;2.50;;;;;;;;;;4939951;29;20453;-72
2022/05/27 03:31:58;;;;;;;8.60;2.92;;;;;;;;;;4957240;28;20039;-74
2022/05/27 03:34:24;;;;;;;4.35;2.60;;;;;;;;;;4951187;29;20043;-73
2022/05/27 03:36:55;;;;;;;3.30;2.60;;;;;;;;;;4955544;29;20027;-72
2022/05/27 03:39:40;;;;;;;6.00;2.55;;;;;;;;;;4953842;29;20138;-71
2022/05/27 03:42:10;;;;;;;4.90;3.13;;;;;;;;;;4960629;28;20026;-72
2022/05/27 03:44:37;;;;;;;3.58;2.67;;;;;;;;;;4973201;28;20503;-71
2022/05/27 03:47:03;;;;;;;5.07;2.65;;;;;;;;;;4953996;28;20111;-72
2022/05/27 03:49:30;;;;;;;4.82;2.42;;;;;;;;;;4952388;29;20043;-71
2022/05/27 03:52:01;;;;;;;4.30;2.70;;;;;;;;;;4942034;28;20061;-71
2022/05/27 03:54:27;;;;;;;6.57;2.80;;;;;;;;;;4967694;28;20130;-70
2022/05/27 03:56:53;;;;;;;3.35;2.40;;;;;;;;;;4950827;28;20079;-70
2022/05/27 03:59:19;;;;;;;6.65;2.90;;;;;;;;;;5004519;28;20480;-72
2022/05/27 04:01:50;;;;;;;4.43;2.70;;;;;;;;;;5010155;28;20037;-84
2022/05/27 04:04:18;;;;;;;3.80;2.70;;;;;;;;;;5011079;28;20036;-74
2022/05/27 04:06:46;;;;;;;4.30;2.70;;;;;;;;;;5009039;28;20030;-74
2022/05/27 04:09:12;;;;;;;6.03;3.05;;;;;;;;;;5033577;28;20471;-75
2022/05/27 04:11:38;;;;;;;7.53;3.28;;;;;;;;;;5023907;28;20492;-73
2022/05/27 04:14:11;;;;;;;9.18;3.30;;;;;;;;;;5013155;28;20038;-89
2022/05/27 04:16:38;;;;;;;6.75;3.40;;;;;;;;;;5000133;28;20057;-85
2022/05/27 04:19:04;;;;;;;12.98;3.38;;;;;;;;;;4992004;28;20160;-87
2022/05/27 04:21:31;;;;;;;11.15;2.97;;;;;;;;;;5013045;28;20054;-90
2022/05/27 04:23:58;;;;;;;9.70;3.20;;;;;;;;;;5005657;28;20032;-85
2022/05/27 04:26:24;;;;;;;10.75;3.05;;;;;;;;;;5015514;28;20048;-90
2022/05/27 04:28:50;;;;;;;8.57;3.22;;;;;;;;;;5000859;28;20079;-88
2022/05/27 04:31:19;;;;;;;9.63;3.10;;;;;;;;;;5008413;28;20026;-91
2022/05/27 04:33:45;;;;;;;8.15;2.70;;;;;;;;;;5010087;28;20501;-74
2022/05/27 04:36:11;;;;;;;7.15;2.83;;;;;;;;;;5009724;28;20028;-73
2022/05/27 04:38:39;;;;;;;7.13;3.08;;;;;;;;;;5016462;28;20026;-73
2022/05/27 04:41:05;;;;;;;6.38;2.58;;;;;;;;;;5021340;28;20024;-72
2022/05/27 04:43:37;;;;;;;5.25;2.67;;;;;;;;;;5023755;28;20034;-73
2022/05/27 04:46:06;;;;;;;12.75;2.97;;;;;;;;;;4998966;28;20034;-71
2022/05/27 04:48:35;;;;;;;5.15;3.00;;;;;;;;;;5012570;28;20177;-93
2022/05/27 04:51:01;;;;;;;7.22;2.80;;;;;;;;;;4991255;28;20164;-84
2022/05/27 04:53:27;;;;;;;16.02;3.17;;;;;;;;;;5000430;28;20037;-85
2022/05/27 04:55:55;;;;;;;14.48;3.13;;;;;;;;;;5015574;28;20464;-84
2022/05/27 04:58:26;;;;;;;25.15;3.72;;;;;;;;;;5023428;28;20192;-78
2022/05/27 05:00:52;;;;;;;8.30;3.90;;;;;;;;;;5003417;28;20053;-75
2022/05/27 05:03:18;;;;;;;8.32;4.03;;;;;;;;;;5025153;28;20456;-76
2022/05/27 05:05:45;;;;;;;6.78;3.90;;;;;;;;;;5013240;28;20093;-75
2022/05/27 05:08:22;;;;;;;7.82;3.78;;;;;;;;;;5011271;28;20045;-75
2022/05/27 05:10:48;;;;;;;12.60;3.58;;;;;;;;;;5013833;28;20022;-76
2022/05/27 05:13:15;;;;;;;7.10;2.83;;;;;;;;;;5014106;28;20117;-74
2022/05/27 05:15:41;;;;;;;13.63;3.78;;;;;;;;;;5015247;28;20045;-74
2022/05/27 05:18:07;;;;;;;5.45;3.08;;;;;;;;;;5014281;28;20091;-76
2022/05/27 05:20:34;;;;;;;5.63;2.75;;;;;;;;;;5024056;28;20026;-73
2022/05/27 05:23:00;;;;;;;4.95;2.67;;;;;;;;;;5017836;28;20037;-72
2022/05/27 05:25:26;;;;;;;12.25;3.00;;;;;;;;;;5016899;28;20054;-82
2022/05/27 05:27:53;;;;;;;7.93;2.63;;;;;;;;;;5012408;28;20042;-72
2022/05/27 05:30:20;;;;;;;5.07;2.70;;;;;;;;;;5024414;28;20026;-72
2022/05/27 05:32:46;;;;;;;4.90;2.50;;;;;;;;;;5018452;28;20033;-82
2022/05/27 05:35:15;;;;;;;2.47;2.00;;;;;;;;;;5010166;28;20522;-81
2022/05/27 05:37:42;;;;;;;2.40;2.20;;;;;;;;;;4998021;28;20037;-88
2022/05/27 05:40:10;;;;;;;2.65;2.13;;;;;;;;;;4995161;28;20068;-71
2022/05/27 05:42:36;;;;;;;4.70;2.20;;;;;;;;;;5016211;28;20161;-79
2022/05/27 05:45:03;;;;;;;12.77;2.13;;;;;;;;;;5019850;28;20034;-78
2022/05/27 05:47:30;;;;;;;6.75;2.20;;;;;;;;;;5020723;28;20037;-81
2022/05/27 05:49:56;;;;;;;11.75;2.50;;;;;;;;;;5019616;28;20112;-77
2022/05/27 05:52:22;;;;;;;12.77;2.55;;;;;;;;;;4994838;28;20038;-77
2022/05/27 05:54:48;;;;;;;7.35;2.40;;;;;;;;;;5016964;28;20030;-78
2022/05/27 05:57:19;;;;;;;3.47;2.20;;;;;;;;;;5021151;28;20026;-81
2022/05/27 05:59:45;;;;;;;4.63;2.50;;;;;;;;;;4999583;28;20026;-77
2022/05/27 06:02:11;;;;;;;6.18;2.30;;;;;;;;;;5011082;28;20028;-76
2022/05/27 06:04:38;;;;;;;12.40;2.53;;;;;;;;;;5017829;28;20116;-76
2022/05/27 06:07:04;;;;;;;10.55;2.45;;;;;;;;;;5013771;28;20037;-81
2022/05/27 06:09:30;;;;;;;5.93;2.20;;;;;;;;;;5016460;28;20400;-78
2022/05/27 06:11:57;;;;;;;6.32;2.17;;;;;;;;;;5018996;28;20041;-77
2022/05/27 06:14:23;;;;;;;3.35;2.28;;;;;;;;;;5000419;28;20534;-80
2022/05/27 06:16:49;;;;;;;4.47;2.40;;;;;;;;;;4998144;28;20112;-81
2022/05/27 06:19:16;;;;;;;3.60;2.30;;;;;;;;;;5023705;28;20049;-78
2022/05/27 06:21:43;;;;;;;3.45;2.10;;;;;;;;;;4999714;28;20041;-83
2022/05/27 06:24:10;;;;;;;3.03;2.20;;;;;;;;;;5012538;28;20022;-81
2022/05/27 06:26:38;;;;;;;4.80;2.40;;;;;;;;;;5014520;28;20029;-77
2022/05/27 06:34:33;;;;;;;7.68;2.50;;;;;;;;;;5018370;28;20398;-80
2022/05/27 06:37:07;;;;;;;7.18;2.60;;;;;;;;;;4997770;28;20078;-75
2022/05/27 06:39:35;;;;;;;21.75;3.30;;;;;;;;;;4994524;28;20088;-77
2022/05/27 06:42:01;;;;;;;5.85;2.45;;;;;;;;;;5021909;28;20036;-75
2022/05/27 06:44:27;;;;;;;6.32;2.80;;;;;;;;;;5021563;28;20059;-79
2022/05/27 06:46:54;;;;;;;7.10;2.58;;;;;;;;;;5013640;28;20045;-81
2022/05/27 06:49:26;;;;;;;6.57;2.70;;;;;;;;;;5015051;28;20022;-71
2022/05/27 06:51:52;;;;;;;6.13;2.97;;;;;;;;;;5015779;28;20034;-71
2022/05/27 06:54:19;;;;;;;4.57;2.78;;;;;;;;;;5011442;28;20030;-70
2022/05/27 06:56:47;;;;;;;4.95;2.70;;;;;;;;;;4974991;28;20391;-77
2022/05/27 06:59:16;;;;;;;3.83;2.47;;;;;;;;;;5016252;28;20103;-85
2022/05/27 07:01:43;;;;;;;5.45;2.55;;;;;;;;;;5020061;28;20553;-79
2022/05/27 07:04:10;;;;;;;6.63;2.80;;;;;;;;;;5016781;28;20033;-79
2022/05/27 07:06:38;;;;;;;4.85;2.63;;;;;;;;;;5011525;28;20030;-80
2022/05/27 07:09:06;;;;;;;3.42;2.50;;;;;;;;;;5019504;28;20033;-79
2022/05/27 07:11:33;;;;;;;3.95;2.70;;;;;;;;;;4988728;28;20145;-80
2022/05/27 07:13:59;;;;;;;4.10;2.40;;;;;;;;;;5009566;28;20030;-80
2022/05/27 07:16:27;;;;;;;3.35;2.67;;;;;;;;;;5010308;28;20029;-72
2022/05/27 07:18:54;;;;;;;5.85;2.80;;;;;;;;;;5010195;28;20068;-72
2022/05/27 07:21:20;;;;;;;6.90;2.50;;;;;;;;;;5014921;28;20365;-76
2022/05/27 07:23:46;;;;;;;4.45;2.30;;;;;;;;;;5022345;28;20499;-78
2022/05/27 07:26:12;;;;;;;6.78;2.60;;;;;;;;;;5012095;28;20109;-74
2022/05/27 07:28:39;;;;;;;9.48;2.63;;;;;;;;;;5023706;28;20052;-72
2022/05/27 07:31:05;;;;;;;4.15;2.45;;;;;;;;;;5014174;28;20022;-72
2022/05/27 07:33:31;;;;;;;6.20;2.53;;;;;;;;;;5018787;28;20029;-73
2022/05/27 07:36:01;;;;;;;7.32;2.40;;;;;;;;;;5013790;28;20124;-70
2022/05/27 07:38:36;;;;;;;5.35;2.50;;;;;;;;;;4995015;28;20030;-70
2022/05/27 07:41:02;;;;;;;10.25;2.80;;;;;;;;;;5009755;28;20380;-73
2022/05/27 07:43:28;;;;;;;29.60;3.40;;;;;;;;;;5003404;28;20472;-73
2022/05/27 07:45:54;;;;;;;12.27;2.78;;;;;;;;;;5014574;28;20034;-72
2022/05/27 07:48:20;;;;;;;4.63;2.70;;;;;;;;;;5022824;28;20048;-79
2022/05/27 07:50:46;;;;;;;4.72;2.17;;;;;;;;;;5014725;28;20018;-76
2022/05/27 07:53:12;;;;;;;6.03;2.80;;;;;;;;;;5015285;28;20041;-75
2022/05/27 07:55:38;;;;;;;5.13;2.53;;;;;;;;;;5014031;28;20538;-77
2022/05/27 07:58:04;;;;;;;6.97;2.55;;;;;;;;;;5023169;28;20029;-74
2022/05/27 08:00:33;;;;;;;4.22;2.50;;;;;;;;;;5016233;28;20038;-75
2022/05/27 08:02:59;;;;;;;5.25;2.40;;;;;;;;;;5014900;28;20029;-77
2022/05/27 08:05:27;;;;;;;5.38;2.58;;;;;;;;;;5017272;28;20029;-78
2022/05/27 08:07:57;;;;;;;4.78;2.30;;;;;;;;;;5019034;28;20056;-71
2022/05/27 08:10:34;;;;;;;4.57;2.17;;;;;;;;;;5015281;28;20018;-72
2022/05/27 08:13:00;;;;;;;3.75;2.13;;;;;;;;;;5010454;28;20471;-74
2022/05/27 08:15:27;;;;;;;5.50;2.10;;;;;;;;;;5012288;28;20064;-72
2022/05/27 08:17:59;;;;;;;4.13;2.40;;;;;;;;;;4995059;28;20096;-70
2022/05/27 08:20:30;;;;;;;6.00;2.00;;;;;;;;;;5011409;28;20030;-71
2022/05/27 08:22:57;;;;;;;4.18;2.15;;;;;;;;;;5004103;28;20522;-73
2022/05/27 08:25:25;;;;;;;3.85;2.00;;;;;;;;;;4992571;28;20472;-76
2022/05/27 08:27:54;;;;;;;3.38;2.05;;;;;;;;;;5012446;28;20038;-70
2022/05/27 08:30:27;;;;;;;4.45;2.00;;;;;;;;;;5013986;28;20384;-70
2022/05/27 08:32:59;;;;;;;13.77;2.72;;;;;;;;;;5010727;28;20065;-71
2022/05/27 08:38:13;;;;;;;4.30;2.22;;;;;;;;;;5019425;28;20041;-75
2022/05/27 08:40:45;;;;;;;5.50;2.20;;;;;;;;;;5012674;28;20076;-76
2022/05/27 08:43:37;;;;;;;5.90;2.33;;;;;;;;;;5010280;28;20030;-70
2022/05/27 08:46:22;;;;;;;4.13;2.13;;;;;;;;;;4995693;28;20471;-72
2022/05/27 08:48:55;;;;;;;3.58;2.25;;;;;;;;;;5005533;28;20124;-71
2022/05/27 08:51:28;;;;;;;13.82;2.72;;;;;;;;;;4994593;28;20120;-69
2022/05/27 08:54:07;;;;;;;9.57;2.30;;;;;;;;;;5011329;28;20029;-69
2022/05/27 08:59:31;;;;;;;3.17;2.10;;;;;;;;;;5011060;28;20083;-69
2022/05/27 09:02:18;;;;;;;4.03;2.10;;;;;;;;;;5013307;28;20024;-70
2022/05/27 09:04:44;;;;;;;5.85;2.30;;;;;;;;;;4911968;29;20037;-72
2022/05/27 09:07:13;;;;;;;4.10;2.10;;;;;;;;;;4913719;29;20052;-78
2022/05/27 09:09:39;;;;;;;8.52;2.17;;;;;;;;;;4911250;29;20046;-72
2022/05/27 09:12:24;;;;;;;8.52;2.35;;;;;;;;;;4912627;29;20051;-71
2022/05/27 09:15:03;;;;;;;3.28;2.10;;;;;;;;;;4911866;29;20032;-74
2022/05/27 09:17:44;;;;;;;16.17;2.78;;;;;;;;;;4912082;29;20484;-75
2022/05/27 09:20:19;;;;;;;4.15;2.30;;;;;;;;;;4914695;29;20391;-74
2022/05/27 09:23:11;;;;;;;6.35;2.17;;;;;;;;;;4918060;29;20044;-77
2022/05/27 09:25:56;;;;;;;7.90;2.30;;;;;;;;;;4907459;29;20043;-74
2022/05/27 09:28:31;;;;;;;3.92;2.22;;;;;;;;;;4917710;29;20097;-75
2022/05/27 09:30:58;;;;;;;4.40;2.15;;;;;;;;;;4917202;29;20107;-75
2022/05/27 09:33:26;;;;;;;5.78;2.30;;;;;;;;;;4916638;29;20487;-77
2022/05/27 09:36:06;;;;;;;7.03;2.30;;;;;;;;;;4917261;29;20067;-74
2022/05/27 09:38:34;;;;;;;12.93;2.92;;;;;;;;;;4915872;29;20459;-76
2022/05/27 09:41:25;;;;;;;4.97;2.65;;;;;;;;;;4928828;28;20579;-76
2022/05/27 09:43:57;;;;;;;4.82;2.50;;;;;;;;;;4974321;28;20042;-76
2022/05/27 09:46:28;;;;;;;4.13;2.38;;;;;;;;;;4986362;28;20464;-75
2022/05/27 09:48:56;;;;;;;3.85;2.22;;;;;;;;;;4973828;28;20050;-77
2022/05/27 09:51:23;;;;;;;13.68;2.47;;;;;;;;;;4975079;28;20031;-76
2022/05/27 09:53:52;;;;;;;4.70;2.08;;;;;;;;;;4959800;28;20027;-75
2022/05/27 09:56:32;;;;;;;4.63;2.22;;;;;;;;;;4977135;28;20520;-74
2022/05/27 09:59:17;;;;;;;3.85;2.22;;;;;;;;;;4977880;28;20058;-75
2022/05/27 10:01:43;;;;;;;9.52;2.45;;;;;;;;;;4972402;28;20047;-75
2022/05/27 10:04:13;;;;;;;3.35;2.17;;;;;;;;;;4980855;28;20038;-74
2022/05/27 10:06:39;;;;;;;4.20;2.38;;;;;;;;;;4972867;28;20039;-74
2022/05/27 10:09:11;;;;;;;8.32;2.67;;;;;;;;;;4981702;28;20506;-77
2022/05/27 10:11:53;;;;;;;4.43;2.30;;;;;;;;;;4974320;28;20049;-76
2022/05/27 10:14:24;;;;;;;7.07;2.40;;;;;;;;;;4974214;28;20118;-72
2022/05/27 10:17:13;;;;;;;4.25;2.38;;;;;;;;;;4979217;28;20031;-71
2022/05/27 10:19:47;;;;;;;5.60;2.70;;;;;;;;;;4980955;28;20042;-75
2022/05/27 10:22:27;;;;;;;7.47;2.45;;;;;;;;;;5008634;28;20494;-74
2022/05/27 10:24:59;;;;;;;7.97;2.30;;;;;;;;;;5018486;28;20034;-75
2022/05/27 10:27:30;;;;;;;15.93;2.70;;;;;;;;;;5017761;28;20021;-74
2022/05/27 10:29:58;;;;;;;9.57;2.38;;;;;;;;;;5013765;28;20558;-75
2022/05/27 10:32:34;;;;;;;9.23;2.67;;;;;;;;;;5014417;28;20045;-76
2022/05/27 10:35:03;;;;;;;3.10;2.30;;;;;;;;;;5008292;28;20495;-76
2022/05/27 10:37:35;;;;;;;9.30;2.50;;;;;;;;;;5014526;28;20101;-74
2022/05/27 10:40:04;;;;;;;6.70;2.75;;;;;;;;;;5014167;28;20021;-73
2022/05/27 10:42:30;;;;;;;9.48;3.00;;;;;;;;;;5016169;28;20048;-72
2022/05/27 10:45:23;;;;;;;5.95;2.78;;;;;;;;;;5006817;28;20022;-77
2022/05/27 10:48:08;;;;;;;3.55;2.53;;;;;;;;;;4992457;28;20404;-73
2022/05/27 10:50:52;;;;;;;7.70;3.05;;;;;;;;;;5010089;28;20025;-72
2022/05/27 10:53:36;;;;;;;5.50;2.90;;;;;;;;;;5021884;28;20028;-76
2022/05/27 10:56:17;;;;;;;5.03;2.72;;;;;;;;;;5006434;28;20065;-73
2022/05/27 11:02:13;;;;;;;8.82;2.38;;;;;;;;;;5019243;28;20080;-74
2022/05/27 11:04:42;;;;;;;10.15;2.75;;;;;;;;;;5000464;28;20116;-73
2022/05/27 11:07:17;;;;;;;7.00;2.70;;;;;;;;;;5012551;28;20640;-73
2022/05/27 11:09:58;;;;;;;6.10;2.20;;;;;;;;;;5001968;28;20518;-73
2022/05/27 11:12:25;;;;;;;3.75;2.08;;;;;;;;;;5017124;28;20041;-73
2022/05/27 11:17:58;;;;;;;8.10;2.72;;;;;;;;;;5015878;28;20037;-75
2022/05/27 11:20:45;;;;;;;7.95;2.40;;;;;;;;;;5009369;28;20499;-72
2022/05/27 11:23:30;;;;;;;4.97;2.20;;;;;;;;;;5017622;28;20397;-72
2022/05/27 11:26:02;;;;;;;6.50;2.80;;;;;;;;;;5025824;28;20079;-84
2022/05/27 11:28:31;;;;;;;6.13;2.50;;;;;;;;;;5017816;28;20038;-83
2022/05/27 11:31:03;;;;;;;4.80;2.20;;;;;;;;;;4995396;28;20033;-87
2022/05/27 11:33:34;;;;;;;5.95;2.40;;;;;;;;;;5007031;28;20029;-75
2022/05/27 11:36:15;;;;;;;8.75;3.33;;;;;;;;;;5010824;28;20060;-77
2022/05/27 11:39:00;;;;;;;5.38;2.55;;;;;;;;;;5011326;28;20484;-79
2022/05/27 11:41:27;;;;;;;5.90;2.85;;;;;;;;;;4993562;28;20041;-76
2022/05/27 11:43:53;;;;;;;6.00;2.72;;;;;;;;;;5015143;28;20084;-81
2022/05/27 11:46:37;;;;;;;6.90;2.35;;;;;;;;;;5020978;28;20057;-79
2022/05/27 11:49:22;;;;;;;6.07;3.03;;;;;;;;;;5011106;28;20025;-78
2022/05/27 11:51:51;;;;;;;5.13;2.60;;;;;;;;;;4995066;28;20044;-74
2022/05/27 11:54:29;;;;;;;4.75;2.45;;;;;;;;;;5014093;28;20032;-81
2022/05/27 11:56:55;;;;;;;7.68;2.90;;;;;;;;;;5013765;28;20029;-78
2022/05/27 11:59:24;;;;;;;4.60;2.40;;;;;;;;;;4996365;28;20488;-80
2022/05/27 12:02:16;;;;;;;7.10;2.70;;;;;;;;;;5010675;28;20048;-81
2022/05/27 12:04:49;;;;;;;7.30;2.60;;;;;;;;;;5008864;28;20161;-77
2022/05/27 12:07:25;;;;;;;6.45;2.28;;;;;;;;;;4991889;28;20047;-88
2022/05/27 12:09:57;;;;;;;4.78;2.40;;;;;;;;;;5013841;28;20032;-74
2022/05/27 12:12:26;;;;;;;12.25;2.70;;;;;;;;;;4965901;28;1307699;-76
2022/05/27 12:14:58;;;;;;;10.98;2.78;;;;;;;;;;5013305;28;20033;-85
2022/05/27 12:17:30;;;;;;;14.40;3.40;;;;;;;;;;5023146;28;20383;-83
2022/05/27 12:19:58;;;;;;;9.43;2.70;;;;;;;;;;5010561;28;20468;-79
2022/05/27 12:22:27;;;;;;;6.47;2.47;;;;;;;;;;5013240;28;20030;-81
2022/05/27 12:25:02;;;;;;;7.95;2.90;;;;;;;;;;5013291;28;21388;-82
2022/05/27 12:27:28;;;;;;;4.45;2.65;;;;;;;;;;5003027;28;20120;-81
2022/05/27 12:29:55;;;;;;;5.47;2.80;;;;;;;;;;5012571;28;20492;-79
2022/05/27 12:32:24;;;;;;;4.20;2.63;;;;;;;;;;5012921;28;20014;-79
2022/05/27 12:34:51;;;;;;;5.53;2.50;;;;;;;;;;5013858;28;20037;-78
2022/05/27 12:37:20;;;;;;;7.45;2.88;;;;;;;;;;5012372;28;20026;-82
2022/05/27 12:39:47;;;;;;;6.28;2.80;;;;;;;;;;4999903;28;20041;-81
2022/05/27 12:42:25;;;;;;;4.78;2.60;;;;;;;;;;5012531;28;20094;-84
2022/05/27 12:44:52;;;;;;;4.95;2.53;;;;;;;;;;5016480;28;20029;-84
2022/05/27 12:47:23;;;;;;;6.00;3.17;;;;;;;;;;5010900;28;20093;-82
2022/05/27 12:50:09;;;;;;;11.05;3.00;;;;;;;;;;5018068;28;20037;-73
2022/05/27 12:52:35;;;;;;;6.40;2.88;;;;;;;;;;4999532;28;20033;-80
2022/05/27 12:55:04;;;;;;;9.02;3.17;;;;;;;;;;5016985;28;20082;-85
2022/05/27 13:03:31;;;;;;;10.73;3.10;;;;;;;;;;5010588;28;20084;-76
2022/05/27 13:06:03;;;;;;;4.40;2.63;;;;;;;;;;5011510;28;20061;-73
2022/05/27 13:08:34;;;;;;;5.03;3.05;;;;;;;;;;5011467;28;20030;-77
2022/05/27 13:11:00;;;;;;;8.07;3.35;;;;;;;;;;5018315;28;20468;-78
2022/05/27 13:13:28;;;;;;;9.90;3.25;;;;;;;;;;5012339;28;20046;-74
2022/05/27 13:16:06;;;;;;;11.43;3.20;;;;;;;;;;5010873;28;20097;-78
2022/05/27 13:18:37;;;;;;;8.95;3.13;;;;;;;;;;5002913;28;20041;-78
2022/05/27 13:21:03;;;;;;;8.27;3.40;;;;;;;;;;5008873;28;20025;-79
2022/05/27 13:23:31;;;;;;;10.82;3.17;;;;;;;;;;5012065;28;20112;-78
2022/05/27 13:26:10;;;;;;;8.77;3.20;;;;;;;;;;5010260;28;20056;-78
2022/05/27 13:28:39;;;;;;;7.07;3.00;;;;;;;;;;5004427;28;20104;-75
2022/05/27 13:31:13;;;;;;;11.38;3.28;;;;;;;;;;5012967;28;20478;-74
2022/05/27 13:33:47;;;;;;;9.13;3.22;;;;;;;;;;5010845;28;20060;-74
2022/05/27 13:36:24;;;;;;;6.68;3.38;;;;;;;;;;4997275;28;20030;-79
2022/05/27 13:38:55;;;;;;;7.60;3.05;;;;;;;;;;5010420;28;20021;-71
2022/05/27 13:41:22;;;;;;;12.13;3.30;;;;;;;;;;5016665;28;20022;-74
2022/05/27 13:43:51;;;;;;;5.85;3.08;;;;;;;;;;5012576;28;20054;-84
2022/05/27 13:46:20;;;;;;;12.32;3.15;;;;;;;;;;5012282;28;20450;-73
2022/05/27 13:48:50;;;;;;;8.35;3.05;;;;;;;;;;5021444;28;20037;-81
2022/05/27 13:51:21;;;;;;;6.47;3.10;;;;;;;;;;4989692;28;20045;-80
2022/05/27 13:53:48;;;;;;;6.70;3.00;;;;;;;;;;5008567;28;20033;-79
2022/05/27 13:56:14;;;;;;;5.95;2.80;;;;;;;;;;5013424;28;20022;-83
2022/05/27 13:58:52;;;;;;;7.20;2.97;;;;;;;;;;5000574;28;20077;-80
2022/05/27 14:01:21;;;;;;;9.80;3.20;;;;;;;;;;5006313;28;20054;-76
2022/05/27 14:03:52;;;;;;;6.93;3.08;;;;;;;;;;5020677;28;20479;-84
2022/05/27 14:06:31;;;;;;;12.55;3.30;;;;;;;;;;5009457;28;20034;-79
2022/05/27 14:08:57;;;;;;;7.95;3.05;;;;;;;;;;5017568;28;20033;-77
2022/05/27 14:11:30;;;;;;;12.38;3.83;;;;;;;;;;5016866;28;20053;-79
2022/05/27 14:13:58;;;;;;;15.65;7.75;;;;;;;;;;5023964;28;20037;-75
2022/05/27 14:16:25;;;;;;;14.95;7.32;;;;;;;;;;5013688;28;20100;-77
2022/05/27 14:18:52;;;;;;;9.50;3.80;;;;;;;;;;5015942;28;20057;-75
2022/05/27 14:24:18;;;;;;;12.93;4.07;;;;;;;;;;5007112;28;20459;-78
2022/05/27 14:26:45;;;;;;;6.55;3.13;;;;;;;;;;5012071;28;20029;-76
2022/05/27 14:29:13;;;;;;;6.28;2.92;;;;;;;;;;5003359;28;20038;-78
2022/05/27 14:31:40;;;;;;;7.05;2.97;;;;;;;;;;5002194;28;20026;-71
2022/05/27 14:34:10;;;;;;;5.80;2.90;;;;;;;;;;5007809;28;20033;-77
2022/05/27 14:36:46;;;;;;;9.38;3.15;;;;;;;;;;5002130;28;20499;-81
2022/05/27 14:39:13;;;;;;;5.25;3.05;;;;;;;;;;4989910;28;20032;-81
2022/05/27 14:41:42;;;;;;;5.40;3.22;;;;;;;;;;5002982;28;20384;-84
2022/05/27 14:44:19;;;;;;;5.78;3.22;;;;;;;;;;5002262;28;20049;-88
2022/05/27 14:47:00;;;;;;;12.07;3.28;;;;;;;;;;5000105;28;20041;-74
2022/05/27 14:49:27;;;;;;;8.30;3.10;;;;;;;;;;5014574;28;20034;-81
2022/05/27 14:51:54;;;;;;;7.65;2.78;;;;;;;;;;5005696;28;20022;-79
2022/05/27 14:54:23;;;;;;;5.35;2.83;;;;;;;;;;5016319;28;20026;-79
2022/05/27 14:56:50;;;;;;;10.20;3.17;;;;;;;;;;4999538;28;20032;-79
2022/05/27 14:59:21;;;;;;;6.35;3.30;;;;;;;;;;5018593;28;20017;-73
2022/05/27 15:01:52;;;;;;;9.25;3.55;;;;;;;;;;5013926;28;20113;-76
2022/05/27 15:04:27;;;;;;;8.88;3.20;;;;;;;;;;5012385;28;20519;-79
2022/05/27 15:06:53;;;;;;;8.02;3.30;;;;;;;;;;4997697;28;20041;-76
2022/05/27 15:09:31;;;;;;;9.50;3.22;;;;;;;;;;5017770;28;20027;-82
2022/05/27 15:12:13;;;;;;;8.35;3.40;;;;;;;;;;5023249;28;20053;-75
2022/05/27 15:14:46;;;;;;;8.82;3.28;;;;;;;;;;5014780;28;20033;-80
2022/05/27 15:17:25;;;;;;;8.85;3.10;;;;;;;;;;5016261;28;20022;-75
2022/05/27 15:20:03;;;;;;;7.88;2.90;;;;;;;;;;5004992;28;20063;-87
2022/05/27 15:22:31;;;;;;;8.00;3.28;;;;;;;;;;5021519;28;20500;-73
2022/05/27 15:25:06;;;;;;;6.00;3.13;;;;;;;;;;5015770;28;20026;-73
2022/05/27 15:33:24;;;;;;;8.02;3.17;;;;;;;;;;5012049;28;20040;-74
2022/05/27 15:35:55;;;;;;;4.97;3.15;;;;;;;;;;5000181;28;20145;-77